createdAt,value
2018-05-10T00:01:30.878Z,79.60
2018-05-10T00:03:58.402Z,80.30
2018-05-10T00:06:26.273Z,80.70
2018-05-10T00:08:54.572Z,81.10
2018-05-10T00:11:22.099Z,81.00
2018-05-10T00:13:50.426Z,80.10
2018-05-10T00:16:17.948Z,80.00
2018-05-10T00:18:46.277Z,81.00
2018-05-10T00:21:15.482Z,80.40
2018-05-10T00:23:43.055Z,80.80
2018-05-10T00:26:10.632Z,81.70
2018-05-10T00:28:39.006Z,82.50
2018-05-10T00:31:06.538Z,82.40
2018-05-10T00:33:34.067Z,82.80
2018-05-10T00:36:01.637Z,83.70
2018-05-10T00:38:29.159Z,84.00
2018-05-10T00:40:57.471Z,83.50
2018-05-10T00:43:25.008Z,83.40
2018-05-10T00:45:52.522Z,83.50
2018-05-10T00:48:20.036Z,83.90
2018-05-10T00:50:48.215Z,84.00
2018-05-10T00:53:16.539Z,83.90
2018-05-10T00:55:44.511Z,84.10
2018-05-10T00:58:12.066Z,84.40
2018-05-10T01:00:39.599Z,84.50
2018-05-10T01:03:07.129Z,84.30
2018-05-10T01:05:34.673Z,84.40
2018-05-10T01:08:02.202Z,84.10
2018-05-10T01:10:29.731Z,84.40
2018-05-10T01:12:57.336Z,84.60
2018-05-10T01:15:24.851Z,84.60
2018-05-10T01:17:52.372Z,84.70
2018-05-10T01:20:19.931Z,84.60
2018-05-10T01:22:47.450Z,84.00
2018-05-10T01:25:16.474Z,83.70
2018-05-10T01:27:44.019Z,83.40
2018-05-10T01:30:12.311Z,83.00
2018-05-10T01:32:39.826Z,83.00
2018-05-10T01:35:19.750Z,82.80
2018-05-10T01:37:47.261Z,83.00
2018-05-10T01:40:16.442Z,83.40
2018-05-10T01:42:44.003Z,83.60
2018-05-10T01:45:11.526Z,83.60
2018-05-10T01:47:39.050Z,83.90
2018-05-10T01:50:06.602Z,84.20
2018-05-10T01:52:34.145Z,84.30
2018-05-10T01:55:02.438Z,85.00
2018-05-10T01:57:31.112Z,85.00
2018-05-10T01:59:59.407Z,84.50
2018-05-10T02:02:26.940Z,84.50
2018-05-10T02:04:55.272Z,84.60
2018-05-10T02:07:22.794Z,84.60
2018-05-10T02:09:50.313Z,84.50
2018-05-10T02:12:18.627Z,84.80
2018-05-10T02:14:47.120Z,84.90
2018-05-10T02:17:16.399Z,84.90
2018-05-10T02:19:45.283Z,84.90
2018-05-10T02:22:15.312Z,84.80
2018-05-10T02:24:43.391Z,84.90
2018-05-10T02:27:10.967Z,85.10
2018-05-10T02:29:38.566Z,85.40
2018-05-10T02:32:06.100Z,85.50
2018-05-10T02:34:33.651Z,85.40
2018-05-10T02:37:01.189Z,85.80
2018-05-10T02:39:28.706Z,85.90
2018-05-10T02:41:56.645Z,85.90
2018-05-10T02:44:24.163Z,86.10
2018-05-10T02:46:52.478Z,85.70
2018-05-10T02:49:20.027Z,85.70
2018-05-10T02:51:47.547Z,85.80
2018-05-10T02:54:16.418Z,86.00
2018-05-10T02:56:43.976Z,86.40
2018-05-10T02:59:12.406Z,86.30
2018-05-10T03:01:39.940Z,86.70
2018-05-10T03:04:08.761Z,86.70
2018-05-10T03:06:36.287Z,86.70
2018-05-10T03:09:04.573Z,87.10
2018-05-10T03:11:32.138Z,87.10
2018-05-10T03:13:59.654Z,87.30
2018-05-10T03:16:27.174Z,87.80
2018-05-10T03:18:54.725Z,88.00
2018-05-10T03:21:22.270Z,88.00
2018-05-10T03:23:49.786Z,87.90
2018-05-10T03:26:18.404Z,88.10
2018-05-10T03:28:45.927Z,88.10
2018-05-10T03:31:14.549Z,87.70
2018-05-10T03:33:42.125Z,88.00
2018-05-10T03:36:09.648Z,87.50
2018-05-10T03:38:37.938Z,86.90
2018-05-10T03:41:05.482Z,86.90
2018-05-10T03:43:34.079Z,86.50
2018-05-10T03:46:01.616Z,86.50
2018-05-10T03:48:29.534Z,86.70
2018-05-10T03:50:57.063Z,86.90
2018-05-10T03:53:24.595Z,86.40
2018-05-10T03:55:52.188Z,87.00
2018-05-10T03:58:19.730Z,85.90
2018-05-10T04:00:47.987Z,85.40
2018-05-10T04:03:25.943Z,85.50
2018-05-10T04:06:05.523Z,85.30
2018-05-10T04:08:45.380Z,84.50
2018-05-10T04:11:25.789Z,84.80
2018-05-10T04:13:53.331Z,84.70
2018-05-10T04:16:20.852Z,85.10
2018-05-10T04:18:48.379Z,85.30
2018-05-10T04:21:16.515Z,84.80
2018-05-10T04:23:44.055Z,84.50
2018-05-10T04:26:12.338Z,83.80
2018-05-10T04:28:39.943Z,83.70
2018-05-10T04:31:07.490Z,83.20
2018-05-10T04:33:35.033Z,83.10
2018-05-10T04:36:02.640Z,83.00
2018-05-10T04:38:30.144Z,82.90
2018-05-10T04:40:57.682Z,82.10
2018-05-10T04:43:25.998Z,81.70
2018-05-10T04:45:53.523Z,81.60
2018-05-10T04:48:21.042Z,81.30
2018-05-10T04:50:49.292Z,80.80
2018-05-10T04:53:16.819Z,81.30
2018-05-10T04:55:44.367Z,80.00
2018-05-10T04:58:11.943Z,80.00
2018-05-10T05:00:40.227Z,80.20
2018-05-10T05:03:08.374Z,80.20
2018-05-10T05:05:35.923Z,80.00
2018-05-10T05:08:03.467Z,80.00
2018-05-10T05:10:30.994Z,80.20
2018-05-10T05:12:59.079Z,79.50
2018-05-10T05:15:26.595Z,79.80
2018-05-10T05:17:54.106Z,79.50
2018-05-10T05:20:21.662Z,79.00
2018-05-10T05:22:49.186Z,79.80
2018-05-10T05:25:16.698Z,79.10
2018-05-10T05:27:44.261Z,79.20
2018-05-10T05:30:11.779Z,77.60
2018-05-10T05:32:39.347Z,77.20
2018-05-10T05:35:06.902Z,76.70
2018-05-10T05:37:34.427Z,76.50
2018-05-10T05:40:02.013Z,76.60
2018-05-10T05:42:29.538Z,76.30
2018-05-10T05:44:57.066Z,76.30
2018-05-10T05:47:24.578Z,75.10
2018-05-10T05:49:52.139Z,75.20
2018-05-10T05:52:19.675Z,75.40
2018-05-10T05:54:47.206Z,74.80
2018-05-10T05:57:17.506Z,73.00
2018-05-10T05:59:45.024Z,73.00
2018-05-10T06:02:12.548Z,69.50
2018-05-10T06:04:41.421Z,62.30
2018-05-10T06:07:08.962Z,61.50
2018-05-10T06:09:36.511Z,60.60
2018-05-10T06:12:04.104Z,56.50
2018-05-10T06:14:32.440Z,52.00
2018-05-10T06:16:59.943Z,52.00
2018-05-10T06:19:27.511Z,48.90
2018-05-10T06:21:55.810Z,47.00
2018-05-10T06:24:23.338Z,47.00
2018-05-10T06:26:50.895Z,46.10
2018-05-10T06:29:18.405Z,44.70
2018-05-10T06:31:45.946Z,45.60
2018-05-10T06:34:14.559Z,44.00
2018-05-10T06:36:42.073Z,42.60
2018-05-10T06:39:10.346Z,38.20
2018-05-10T06:41:38.328Z,38.10
2018-05-10T06:44:05.811Z,38.70
2018-05-10T06:46:34.475Z,36.10
2018-05-10T06:49:02.031Z,36.50
2018-05-10T06:51:29.551Z,36.10
2018-05-10T06:53:57.866Z,36.40
2018-05-10T06:56:26.246Z,35.30
2018-05-10T06:58:53.825Z,35.30
2018-05-10T07:01:21.363Z,34.00
2018-05-10T07:03:49.136Z,33.10
2018-05-10T07:06:17.171Z,32.40
2018-05-10T07:08:44.751Z,31.20
2018-05-10T07:11:12.323Z,31.80
2018-05-10T07:13:39.848Z,31.80
2018-05-10T07:16:07.411Z,31.30
2018-05-10T07:18:35.724Z,33.90
2018-05-10T07:21:03.288Z,33.90
2018-05-10T07:23:30.829Z,33.50
2018-05-10T07:25:58.871Z,34.00
2018-05-10T07:28:27.182Z,32.00
2018-05-10T07:30:54.727Z,32.00
2018-05-10T07:33:22.302Z,32.10
2018-05-10T07:35:49.843Z,31.60
2018-05-10T07:38:17.357Z,30.10
2018-05-10T07:40:44.899Z,29.00
2018-05-10T07:43:12.411Z,27.70
2018-05-10T07:45:39.922Z,27.80
2018-05-10T07:48:07.995Z,28.00
2018-05-10T07:50:35.508Z,26.80
2018-05-10T07:53:03.133Z,25.90
2018-05-10T07:55:30.636Z,25.90
2018-05-10T07:57:58.156Z,26.80
2018-05-10T08:00:25.675Z,26.00
2018-05-10T08:02:53.233Z,25.30
2018-05-10T08:05:20.775Z,24.90
2018-05-10T08:07:48.945Z,25.50
2018-05-10T08:10:16.979Z,26.80
2018-05-10T08:12:44.515Z,27.60
2018-05-10T08:15:12.058Z,26.70
2018-05-10T08:17:39.606Z,26.30
2018-05-10T08:20:07.119Z,26.20
2018-05-10T08:22:35.428Z,25.00
2018-05-10T08:25:03.016Z,25.00
2018-05-10T08:27:43.011Z,23.60
2018-05-10T08:30:12.109Z,21.50
2018-05-10T08:32:39.597Z,21.40
2018-05-10T08:35:07.139Z,22.70
2018-05-10T08:37:34.687Z,23.40
2018-05-10T08:40:03.714Z,21.90
2018-05-10T08:42:31.230Z,21.90
2018-05-10T08:44:59.574Z,22.90
2018-05-10T08:47:27.075Z,22.80
2018-05-10T08:49:54.583Z,22.80
2018-05-10T08:52:22.420Z,24.30
2018-05-10T08:54:49.935Z,24.50
2018-05-10T08:57:17.463Z,25.80
2018-05-10T08:59:45.010Z,28.40
2018-05-10T09:02:12.546Z,30.80
2018-05-10T09:04:40.071Z,32.90
2018-05-10T09:07:07.627Z,35.40
2018-05-10T09:09:35.699Z,36.50
2018-05-10T09:12:03.246Z,37.10
2018-05-10T09:14:31.282Z,37.40
2018-05-10T09:16:58.815Z,36.40
2018-05-10T09:19:26.351Z,38.40
2018-05-10T09:21:53.943Z,38.50
2018-05-10T09:24:21.657Z,39.60
2018-05-10T09:26:49.188Z,40.40
2018-05-10T09:29:16.735Z,37.70
2018-05-10T09:31:45.037Z,34.70
2018-05-10T09:34:15.343Z,34.50
2018-05-10T09:36:42.951Z,30.70
2018-05-10T09:39:10.638Z,30.00
2018-05-10T09:41:38.135Z,30.40
2018-05-10T09:44:05.697Z,29.30
2018-05-10T09:46:33.213Z,31.40
2018-05-10T09:49:01.525Z,35.10
2018-05-10T09:51:29.066Z,35.10
2018-05-10T09:53:56.601Z,34.20
2018-05-10T09:56:24.127Z,33.00
2018-05-10T09:58:52.253Z,31.70
2018-05-10T10:01:19.791Z,29.90
2018-05-10T10:03:47.342Z,29.90
2018-05-10T10:06:16.555Z,31.30
2018-05-10T10:08:44.043Z,30.50
2018-05-10T10:11:12.370Z,30.60
2018-05-10T10:13:39.921Z,31.40
2018-05-10T10:16:08.212Z,34.30
2018-05-10T10:18:36.504Z,35.70
2018-05-10T10:21:04.703Z,35.70
2018-05-10T10:23:32.236Z,36.20
2018-05-10T10:25:59.781Z,37.40
2018-05-10T10:28:27.350Z,39.30
2018-05-10T10:30:54.879Z,39.50
2018-05-10T10:33:22.401Z,40.90
2018-05-10T10:35:49.963Z,39.60
2018-05-10T10:38:17.784Z,39.90
2018-05-10T10:40:45.214Z,40.80
2018-05-10T10:43:14.661Z,40.40
2018-05-10T10:45:42.185Z,40.30
2018-05-10T10:48:09.697Z,39.30
2018-05-10T10:50:37.255Z,38.00
2018-05-10T10:53:04.808Z,39.60
2018-05-10T10:55:32.355Z,40.60
2018-05-10T10:57:59.922Z,39.30
2018-05-10T11:00:27.442Z,38.90
2018-05-10T11:02:55.018Z,40.20
2018-05-10T11:05:23.262Z,38.60
2018-05-10T11:07:51.550Z,38.40
2018-05-10T11:10:19.831Z,38.00
2018-05-10T11:12:48.832Z,39.10
2018-05-10T11:15:17.772Z,39.10
2018-05-10T11:17:45.463Z,39.30
2018-05-10T11:20:25.572Z,39.10
2018-05-10T11:25:21.117Z,39.40
2018-05-10T11:27:48.695Z,39.60
2018-05-10T11:30:16.443Z,38.50
2018-05-10T11:32:43.966Z,36.70
2018-05-10T11:35:11.536Z,39.20
2018-05-10T11:37:40.422Z,37.10
2018-05-10T11:40:08.444Z,37.70
2018-05-10T11:42:37.369Z,37.60
2018-05-10T11:45:05.858Z,37.80
2018-05-10T11:47:33.394Z,37.80
2018-05-10T11:50:00.943Z,37.60
2018-05-10T11:52:28.454Z,37.20
2018-05-10T11:54:55.967Z,38.20
2018-05-10T11:57:24.399Z,37.20
2018-05-10T11:59:51.853Z,37.20
2018-05-10T12:02:19.399Z,36.70
2018-05-10T12:04:47.563Z,37.60
2018-05-10T12:07:16.412Z,37.90
2018-05-10T12:09:43.939Z,37.10
2018-05-10T12:12:11.479Z,38.10
2018-05-10T12:14:39.450Z,38.40
2018-05-10T12:17:06.969Z,39.20
2018-05-10T12:19:34.531Z,39.10
2018-05-10T12:22:02.058Z,39.00
2018-05-10T12:24:30.359Z,40.40
2018-05-10T12:26:58.219Z,40.40
2018-05-10T12:29:26.511Z,39.50
2018-05-10T12:31:54.023Z,39.50
2018-05-10T12:34:21.562Z,43.40
2018-05-10T12:36:49.096Z,45.50
2018-05-10T12:39:16.609Z,46.10
2018-05-10T12:41:44.199Z,45.70
2018-05-10T12:44:12.470Z,45.00
2018-05-10T12:46:40.747Z,45.00
2018-05-10T12:49:09.561Z,44.20
2018-05-10T12:51:37.066Z,44.20
2018-05-10T12:54:04.599Z,45.30
2018-05-10T12:56:32.366Z,44.50
2018-05-10T12:58:59.704Z,45.00
2018-05-10T13:01:27.239Z,45.90
2018-05-10T13:03:54.820Z,46.10
2018-05-10T13:06:22.369Z,46.80
2018-05-10T13:08:49.887Z,45.70
2018-05-10T13:11:18.916Z,45.80
2018-05-10T13:13:46.427Z,45.80
2018-05-10T13:16:26.383Z,42.90
2018-05-10T13:21:18.926Z,43.10
2018-05-10T13:23:46.703Z,41.80
2018-05-10T13:26:14.605Z,42.40
2018-05-10T13:28:42.143Z,42.00
2018-05-10T13:31:11.065Z,42.20
2018-05-10T13:33:38.583Z,42.10
2018-05-10T13:36:06.882Z,42.10
2018-05-10T13:38:34.443Z,42.10
2018-05-10T13:41:01.969Z,42.20
2018-05-10T13:43:30.276Z,43.40
2018-05-10T13:45:57.826Z,43.20
2018-05-10T13:48:25.351Z,42.00
2018-05-10T13:50:52.859Z,41.60
2018-05-10T13:53:21.358Z,41.30
2018-05-10T13:55:49.147Z,41.70
2018-05-10T13:58:16.666Z,42.70
2018-05-10T14:00:45.103Z,41.90
2018-05-10T14:03:14.396Z,43.10
2018-05-10T14:05:42.127Z,43.10
2018-05-10T14:08:09.673Z,42.40
2018-05-10T14:10:37.189Z,41.60
2018-05-10T14:13:04.751Z,41.20
2018-05-10T14:15:33.115Z,41.00
2018-05-10T14:18:01.887Z,40.90
2018-05-10T14:20:29.766Z,41.30
2018-05-10T14:22:57.303Z,41.40
2018-05-10T14:25:24.887Z,41.10
2018-05-10T14:27:53.196Z,44.10
2018-05-10T14:30:20.839Z,43.80
2018-05-10T14:32:49.192Z,43.70
2018-05-10T14:35:16.714Z,44.40
2018-05-10T14:37:44.435Z,41.40
2018-05-10T14:40:13.664Z,41.80
2018-05-10T14:42:41.182Z,41.80
2018-05-10T14:45:08.741Z,42.00
2018-05-10T14:47:36.252Z,42.20
2018-05-10T14:50:03.763Z,43.10
2018-05-10T14:52:31.318Z,43.70
2018-05-10T14:54:58.832Z,44.40
2018-05-10T14:57:26.614Z,43.40
2018-05-10T14:59:54.260Z,43.50
2018-05-10T15:02:21.717Z,44.30
2018-05-10T15:04:49.294Z,44.30
2018-05-10T15:07:16.874Z,44.60
2018-05-10T15:09:45.284Z,45.30
2018-05-10T15:12:13.885Z,45.20
2018-05-10T15:14:42.007Z,45.80
2018-05-10T15:17:09.540Z,46.20
2018-05-10T15:19:37.791Z,45.90
2018-05-10T15:22:05.397Z,46.40
2018-05-10T15:24:32.938Z,46.10
2018-05-10T15:27:00.487Z,45.40
2018-05-10T15:29:28.177Z,45.50
2018-05-10T15:31:55.765Z,46.20
2018-05-10T15:34:24.038Z,45.60
2018-05-10T15:36:52.446Z,45.00
2018-05-10T15:39:20.245Z,45.00
2018-05-10T15:41:49.250Z,44.90
2018-05-10T15:44:17.772Z,43.50
2018-05-10T15:46:45.346Z,44.40
2018-05-10T15:49:25.880Z,44.80
2018-05-10T15:51:53.427Z,44.80
2018-05-10T15:54:22.021Z,45.50
2018-05-10T15:56:49.602Z,45.50
2018-05-10T15:59:17.275Z,45.50
2018-05-10T16:01:44.827Z,45.80
2018-05-10T16:04:12.420Z,46.50
2018-05-10T16:06:40.021Z,46.20
2018-05-10T16:09:07.559Z,46.70
2018-05-10T16:11:35.282Z,46.80
2018-05-10T16:14:02.795Z,46.80
2018-05-10T16:16:30.373Z,47.00
2018-05-10T16:18:57.924Z,47.20
2018-05-10T16:21:26.271Z,47.70
2018-05-10T16:23:53.802Z,47.40
2018-05-10T16:26:21.438Z,47.50
2018-05-10T16:28:48.953Z,47.70
2018-05-10T16:31:17.251Z,48.60
2018-05-10T16:33:45.580Z,48.20
2018-05-10T16:36:14.569Z,48.20
2018-05-10T16:38:42.087Z,48.10
2018-05-10T16:41:09.645Z,48.10
2018-05-10T16:43:37.166Z,47.50
2018-05-10T16:46:04.675Z,47.50
2018-05-10T16:48:32.954Z,47.60
2018-05-10T16:51:00.474Z,47.50
2018-05-10T16:53:28.800Z,48.00
2018-05-10T16:55:56.358Z,48.00
2018-05-10T16:58:23.866Z,48.10
2018-05-10T17:00:52.158Z,48.60
2018-05-10T17:03:20.471Z,48.80
2018-05-10T17:05:47.995Z,48.70
2018-05-10T17:08:17.196Z,49.70
2018-05-10T17:10:45.112Z,49.60
2018-05-10T17:13:13.575Z,49.90
2018-05-10T17:15:41.074Z,50.50
2018-05-10T17:18:08.628Z,51.10
2018-05-10T17:20:36.150Z,51.60
2018-05-10T17:23:05.266Z,52.50
2018-05-10T17:25:32.919Z,53.10
2018-05-10T17:28:00.495Z,53.60
2018-05-10T17:30:28.027Z,53.60
2018-05-10T17:32:56.138Z,53.90
2018-05-10T17:35:24.419Z,55.10
2018-05-10T17:37:51.950Z,55.00
2018-05-10T17:40:19.522Z,55.70
2018-05-10T17:42:47.063Z,56.30
2018-05-10T17:45:25.269Z,56.60
2018-05-10T17:50:33.075Z,56.90
2018-05-10T17:53:00.606Z,57.70
2018-05-10T17:55:28.182Z,58.10
2018-05-10T17:57:55.767Z,58.70
2018-05-10T18:00:23.292Z,58.90
2018-05-10T18:02:50.803Z,58.90
2018-05-10T18:05:18.352Z,59.30
2018-05-10T18:07:45.868Z,59.70
2018-05-10T18:10:14.697Z,59.70
2018-05-10T18:12:42.633Z,60.10
2018-05-10T18:15:10.245Z,60.80
2018-05-10T18:17:37.753Z,61.90
2018-05-10T18:20:05.303Z,62.50
2018-05-10T18:22:32.820Z,63.40
2018-05-10T18:25:02.200Z,65.30
2018-05-10T18:27:29.674Z,65.30
2018-05-10T18:29:57.178Z,66.00
2018-05-10T18:32:24.699Z,67.60
2018-05-10T18:34:52.270Z,67.30
2018-05-10T18:37:20.564Z,68.60
2018-05-10T18:39:48.080Z,68.50
2018-05-10T18:42:16.464Z,69.80
2018-05-10T18:44:44.767Z,71.50
2018-05-10T18:47:12.329Z,71.30
2018-05-10T18:49:40.041Z,71.70
2018-05-10T18:52:07.567Z,71.80
2018-05-10T18:54:35.106Z,72.20
2018-05-10T18:57:02.690Z,72.70
2018-05-10T18:59:30.201Z,73.10
2018-05-10T19:01:57.746Z,74.00
2018-05-10T19:04:25.303Z,74.20
2018-05-10T19:06:53.638Z,76.20
2018-05-10T19:09:21.237Z,76.20
2018-05-10T19:11:49.564Z,78.50
2018-05-10T19:14:17.088Z,77.90
2018-05-10T19:16:44.606Z,78.40
2018-05-10T19:19:12.453Z,79.10
2018-05-10T19:21:39.969Z,79.70
2018-05-10T19:24:08.263Z,80.90
2018-05-10T19:26:37.575Z,81.20
2018-05-10T19:29:05.753Z,81.20
2018-05-10T19:31:33.268Z,81.50
2018-05-10T19:34:00.806Z,82.20
2018-05-10T19:36:28.370Z,82.60
2018-05-10T19:38:55.895Z,83.50
2018-05-10T19:41:23.555Z,84.20
2018-05-10T19:43:51.066Z,84.90
2018-05-10T19:46:18.586Z,86.20
2018-05-10T19:48:46.130Z,87.50
2018-05-10T19:51:15.536Z,89.80
2018-05-10T19:53:42.984Z,91.00
2018-05-10T19:56:10.528Z,92.60
2018-05-10T19:58:38.061Z,93.80
2018-05-10T20:01:06.354Z,95.60
2018-05-10T20:03:34.254Z,95.50
2018-05-10T20:06:01.828Z,95.60
2018-05-10T20:08:29.470Z,95.90
2018-05-10T20:10:57.804Z,96.50
2018-05-10T20:13:25.318Z,96.50
2018-05-10T20:15:52.851Z,97.30
2018-05-10T20:18:20.394Z,97.60
2018-05-10T20:20:47.948Z,97.80
2018-05-10T20:23:16.411Z,98.20
2018-05-10T20:25:44.227Z,99.00
2018-05-10T20:28:12.896Z,99.40
2018-05-10T20:30:40.422Z,99.70
2018-05-10T20:33:08.011Z,99.70
2018-05-10T20:35:35.544Z,99.60
2018-05-10T20:38:03.843Z,99.90
2018-05-10T20:40:31.392Z,99.90
2018-05-10T20:42:58.919Z,99.80
2018-05-10T20:45:27.239Z,99.90
2018-05-10T20:47:55.447Z,99.90
2018-05-10T20:50:22.969Z,99.60
2018-05-10T20:52:50.530Z,99.90
2018-05-10T20:55:18.188Z,99.90
2018-05-10T20:57:45.739Z,99.90
2018-05-10T21:00:25.207Z,99.90
2018-05-10T21:17:27.267Z,99.90
2018-05-10T21:19:54.834Z,99.90
2018-05-10T21:22:22.355Z,99.90
2018-05-10T21:24:49.978Z,99.90
2018-05-10T21:27:17.528Z,99.90
2018-05-10T21:29:45.554Z,99.80
2018-05-10T21:32:24.503Z,99.90
2018-05-10T21:48:05.776Z,99.90
2018-05-10T21:50:33.370Z,99.90
2018-05-10T21:53:00.843Z,99.90
2018-05-10T21:55:29.162Z,99.90
2018-05-10T21:57:56.675Z,99.90
2018-05-10T22:00:24.962Z,99.90
2018-05-10T22:02:53.286Z,99.90
2018-05-10T22:05:20.820Z,99.90
2018-05-10T22:07:48.341Z,99.80
2018-05-10T22:10:16.835Z,99.90
2018-05-10T22:12:44.404Z,99.90
2018-05-10T22:15:11.938Z,99.80
2018-05-10T22:17:40.258Z,99.60
2018-05-10T22:20:07.799Z,99.60
2018-05-10T22:22:35.402Z,99.50
2018-05-10T22:25:03.676Z,99.40
2018-05-10T22:27:31.201Z,99.40
2018-05-10T22:29:59.196Z,99.70
2018-05-10T22:32:26.774Z,99.80
2018-05-10T22:34:54.400Z,99.70
2018-05-10T22:37:21.926Z,99.90
2018-05-10T22:39:50.303Z,99.60
2018-05-10T22:42:17.827Z,99.60
2018-05-10T22:44:45.344Z,99.60
2018-05-10T22:47:15.392Z,99.70
2018-05-10T22:49:42.940Z,99.70
2018-05-10T22:52:10.488Z,99.60
2018-05-10T22:54:38.643Z,99.50
2018-05-10T22:57:06.167Z,99.90
2018-05-10T22:59:33.692Z,99.90
2018-05-10T23:02:01.284Z,99.90
2018-05-10T23:04:28.808Z,99.90
2018-05-10T23:06:56.343Z,99.90
2018-05-10T23:09:23.943Z,99.90
2018-05-10T23:11:51.454Z,99.90
2018-05-10T23:14:18.998Z,99.90
2018-05-10T23:16:47.133Z,99.90
2018-05-10T23:19:17.206Z,99.90
2018-05-10T23:21:44.808Z,99.90
2018-05-10T23:24:12.419Z,99.90
2018-05-10T23:26:39.959Z,99.90
2018-05-10T23:29:08.248Z,99.90
2018-05-10T23:31:36.327Z,99.90
2018-05-10T23:34:03.859Z,99.90
2018-05-10T23:36:32.150Z,99.90
2018-05-10T23:39:01.079Z,99.90
2018-05-10T23:41:28.594Z,99.90
2018-05-10T23:43:56.880Z,99.90
2018-05-10T23:46:25.188Z,99.90
2018-05-10T23:48:52.706Z,99.90
2018-05-10T23:51:20.222Z,99.90
2018-05-10T23:53:47.787Z,99.90
2018-05-10T23:56:16.311Z,99.90
2018-05-10T23:58:43.829Z,99.90
